createdAt,value
2018-02-14T00:01:25.533Z,26.90
2018-02-14T00:03:53.226Z,26.90
2018-02-14T00:06:20.900Z,26.90
2018-02-14T00:08:49.374Z,26.80
2018-02-14T00:11:17.050Z,26.80
2018-02-14T00:13:44.730Z,26.70
2018-02-14T00:16:13.159Z,26.90
2018-02-14T00:18:41.603Z,26.90
2018-02-14T00:21:10.010Z,26.90
2018-02-14T00:23:37.638Z,26.90
2018-02-14T00:26:06.058Z,27.00
2018-02-14T00:28:33.798Z,26.90
2018-02-14T00:31:01.450Z,27.00
2018-02-14T00:33:29.227Z,27.00
2018-02-14T00:35:56.877Z,27.10
2018-02-14T00:38:24.543Z,27.10
2018-02-14T00:40:52.197Z,27.10
2018-02-14T00:43:19.852Z,27.10
2018-02-14T00:45:47.499Z,27.10
2018-02-14T00:48:15.898Z,27.00
2018-02-14T00:50:43.532Z,27.00
2018-02-14T00:53:11.935Z,27.00
2018-02-14T00:55:39.575Z,27.00
2018-02-14T00:58:07.230Z,27.00
2018-02-14T01:00:35.759Z,27.00
2018-02-14T01:03:03.417Z,26.90
2018-02-14T01:05:31.061Z,26.90
2018-02-14T01:07:58.810Z,26.80
2018-02-14T01:10:27.254Z,27.10
2018-02-14T01:12:54.901Z,27.00
2018-02-14T01:15:22.561Z,27.20
2018-02-14T01:17:50.220Z,27.30
2018-02-14T01:20:17.894Z,27.50
2018-02-14T01:22:45.535Z,27.60
2018-02-14T01:25:13.170Z,27.70
2018-02-14T01:27:40.821Z,27.60
2018-02-14T01:30:08.508Z,27.60
2018-02-14T01:32:36.157Z,27.70
2018-02-14T01:35:03.801Z,27.70
2018-02-14T01:37:31.462Z,27.80
2018-02-14T01:39:59.132Z,27.70
2018-02-14T01:42:26.789Z,27.80
2018-02-14T01:44:54.434Z,27.80
2018-02-14T01:47:22.830Z,28.00
2018-02-14T01:49:50.503Z,28.00
2018-02-14T01:52:18.168Z,28.00
2018-02-14T01:54:45.853Z,28.00
2018-02-14T01:57:13.539Z,28.00
2018-02-14T01:59:41.951Z,28.00
2018-02-14T02:02:09.599Z,28.00
2018-02-14T02:04:37.263Z,28.00
2018-02-14T02:07:04.903Z,28.00
2018-02-14T02:09:33.329Z,28.00
2018-02-14T02:12:01.087Z,28.00
2018-02-14T02:14:28.736Z,28.00
2018-02-14T02:16:57.216Z,28.10
2018-02-14T02:19:24.895Z,28.10
2018-02-14T02:21:52.639Z,28.10
2018-02-14T02:24:20.323Z,28.10
2018-02-14T02:26:47.961Z,28.10
2018-02-14T02:29:15.611Z,28.00
2018-02-14T02:31:43.250Z,28.00
2018-02-14T02:34:11.742Z,28.00
2018-02-14T02:36:39.437Z,28.00
2018-02-14T02:39:19.189Z,28.10
2018-02-14T02:41:46.853Z,28.20
2018-02-14T02:44:14.488Z,28.20
2018-02-14T02:46:42.180Z,28.20
2018-02-14T02:49:09.842Z,28.20
2018-02-14T02:51:37.483Z,28.20
2018-02-14T02:54:05.127Z,28.20
2018-02-14T02:56:32.819Z,28.20
2018-02-14T02:59:00.498Z,28.20
2018-02-14T03:01:28.155Z,28.30
2018-02-14T03:03:55.810Z,28.20
2018-02-14T03:06:23.451Z,28.60
2018-02-14T03:08:51.118Z,28.00
2018-02-14T03:11:18.806Z,28.00
2018-02-14T03:13:46.523Z,27.90
2018-02-14T03:16:14.212Z,27.90
2018-02-14T03:18:41.863Z,27.80
2018-02-14T03:21:10.279Z,27.90
2018-02-14T03:23:38.718Z,27.90
2018-02-14T03:26:06.358Z,27.90
2018-02-14T03:28:34.042Z,28.00
2018-02-14T03:31:01.690Z,28.00
2018-02-14T03:33:29.348Z,28.20
2018-02-14T03:35:56.984Z,28.30
2018-02-14T03:38:24.668Z,28.30
2018-02-14T03:40:52.307Z,28.30
2018-02-14T03:43:19.972Z,28.30
2018-02-14T03:45:47.743Z,28.40
2018-02-14T03:48:15.396Z,28.40
2018-02-14T03:50:43.031Z,28.40
2018-02-14T03:53:11.440Z,28.50
2018-02-14T03:55:39.845Z,28.60
2018-02-14T03:58:07.519Z,28.60
2018-02-14T04:00:35.169Z,28.60
2018-02-14T04:03:02.815Z,28.70
2018-02-14T04:05:30.459Z,28.70
2018-02-14T04:07:58.106Z,28.80
2018-02-14T04:10:25.755Z,28.80
2018-02-14T04:12:54.174Z,28.90
2018-02-14T04:15:21.889Z,28.90
2018-02-14T04:17:50.315Z,28.90
2018-02-14T04:20:17.954Z,28.80
2018-02-14T04:22:45.587Z,28.90
2018-02-14T04:25:13.291Z,28.90
2018-02-14T04:27:40.970Z,28.90
2018-02-14T04:30:08.768Z,28.80
2018-02-14T04:32:37.185Z,28.80
2018-02-14T04:35:04.882Z,28.80
2018-02-14T04:37:32.534Z,28.90
2018-02-14T04:40:00.185Z,28.90
2018-02-14T04:42:27.942Z,28.90
2018-02-14T04:44:55.579Z,28.90
2018-02-14T04:47:23.419Z,28.80
2018-02-14T04:49:51.106Z,28.90
2018-02-14T04:52:18.791Z,28.90
2018-02-14T04:54:46.580Z,29.00
2018-02-14T04:57:14.252Z,29.00
2018-02-14T04:59:41.891Z,29.00
2018-02-14T05:02:09.554Z,29.00
2018-02-14T05:04:37.204Z,29.00
2018-02-14T05:07:04.849Z,29.10
2018-02-14T05:09:32.495Z,29.10
2018-02-14T05:12:00.138Z,29.00
2018-02-14T05:14:27.768Z,28.90
2018-02-14T05:16:55.410Z,28.90
2018-02-14T05:19:23.086Z,28.90
2018-02-14T05:21:50.746Z,28.90
2018-02-14T05:24:18.390Z,29.00
2018-02-14T05:26:46.047Z,29.00
2018-02-14T05:29:13.721Z,29.10
2018-02-14T05:31:41.459Z,29.10
2018-02-14T05:34:09.120Z,29.10
2018-02-14T05:36:36.803Z,29.10
2018-02-14T05:39:04.491Z,29.20
2018-02-14T05:41:32.929Z,29.20
2018-02-14T05:44:00.586Z,29.10
2018-02-14T05:46:28.243Z,29.10
2018-02-14T05:48:55.882Z,29.20
2018-02-14T05:51:23.509Z,29.20
2018-02-14T05:53:51.923Z,29.10
2018-02-14T05:56:19.555Z,29.10
2018-02-14T05:58:47.979Z,29.20
2018-02-14T06:01:15.650Z,29.10
2018-02-14T06:03:43.311Z,29.20
2018-02-14T06:06:10.949Z,29.20
2018-02-14T06:08:38.618Z,29.20
2018-02-14T06:11:06.253Z,29.20
2018-02-14T06:13:33.897Z,29.20
2018-02-14T06:16:02.311Z,29.20
2018-02-14T06:18:29.943Z,29.20
2018-02-14T06:20:57.577Z,29.20
2018-02-14T06:23:25.266Z,29.10
2018-02-14T06:25:52.907Z,29.10
2018-02-14T06:28:21.308Z,29.10
2018-02-14T06:30:48.973Z,29.00
2018-02-14T06:33:16.610Z,29.10
2018-02-14T06:35:45.016Z,29.20
2018-02-14T06:38:12.669Z,29.20
2018-02-14T06:40:40.543Z,29.20
2018-02-14T06:43:08.360Z,29.20
2018-02-14T06:45:37.008Z,29.20
2018-02-14T06:48:04.815Z,29.20
2018-02-14T06:50:33.355Z,29.40
2018-02-14T06:53:01.144Z,29.30
2018-02-14T06:55:28.940Z,29.50
2018-02-14T06:57:56.732Z,29.40
2018-02-14T07:00:24.605Z,29.40
2018-02-14T07:02:52.420Z,29.40
2018-02-14T07:05:20.964Z,29.30
2018-02-14T07:07:48.744Z,29.30
2018-02-14T07:10:16.519Z,29.40
2018-02-14T07:12:45.071Z,29.50
2018-02-14T07:15:12.884Z,29.50
2018-02-14T07:17:41.552Z,29.60
2018-02-14T07:20:10.127Z,29.60
2018-02-14T07:22:38.695Z,29.60
2018-02-14T07:25:06.490Z,29.50
2018-02-14T07:27:35.979Z,29.50
2018-02-14T07:30:04.570Z,29.60
2018-02-14T07:32:33.143Z,29.60
2018-02-14T07:35:01.697Z,30.10
2018-02-14T07:37:29.615Z,29.60
2018-02-14T07:39:57.423Z,29.60
2018-02-14T07:42:25.303Z,29.60
2018-02-14T07:44:53.103Z,29.60
2018-02-14T07:47:21.030Z,29.70
2018-02-14T07:49:48.965Z,30.20
2018-02-14T07:52:16.917Z,29.80
2018-02-14T07:54:44.869Z,29.80
2018-02-14T07:57:12.801Z,29.80
2018-02-14T07:59:40.561Z,29.70
2018-02-14T08:02:08.284Z,29.50
2018-02-14T08:04:35.982Z,29.40
2018-02-14T08:07:03.699Z,29.40
2018-02-14T08:09:31.421Z,29.40
2018-02-14T08:11:59.156Z,29.40
2018-02-14T08:14:26.879Z,29.40
2018-02-14T08:16:54.585Z,29.40
2018-02-14T08:19:22.267Z,29.50
2018-02-14T08:21:50.014Z,29.50
2018-02-14T08:24:17.738Z,29.60
2018-02-14T08:26:45.459Z,29.60
2018-02-14T08:29:13.136Z,29.70
2018-02-14T08:31:41.542Z,29.90
2018-02-14T08:34:09.202Z,29.90
2018-02-14T08:36:36.854Z,29.80
2018-02-14T08:39:04.555Z,29.60
2018-02-14T08:41:32.186Z,29.60
2018-02-14T08:43:59.883Z,29.50
2018-02-14T08:46:27.531Z,29.50
2018-02-14T08:48:55.167Z,29.40
2018-02-14T08:51:22.888Z,29.30
2018-02-14T08:53:50.531Z,29.30
2018-02-14T08:56:18.179Z,29.20
2018-02-14T08:58:46.603Z,29.30
2018-02-14T09:01:15.022Z,29.30
2018-02-14T09:03:42.686Z,29.30
2018-02-14T09:06:10.346Z,29.40
2018-02-14T09:08:38.004Z,29.50
2018-02-14T09:11:05.670Z,29.60
2018-02-14T09:16:01.826Z,30.10
2018-02-14T09:18:29.486Z,30.00
2018-02-14T09:20:57.126Z,30.00
2018-02-14T09:23:24.757Z,30.00
2018-02-14T09:25:52.407Z,30.00
2018-02-14T09:28:20.821Z,30.00
2018-02-14T09:30:48.477Z,30.00
2018-02-14T09:33:16.124Z,29.90
2018-02-14T09:35:43.785Z,29.60
2018-02-14T09:38:11.437Z,29.40
2018-02-14T09:40:39.386Z,29.20
2018-02-14T09:43:07.809Z,29.00
2018-02-14T09:45:35.621Z,29.00
2018-02-14T09:48:03.257Z,28.90
2018-02-14T09:50:30.908Z,28.80
2018-02-14T09:52:58.542Z,28.50
2018-02-14T09:55:26.179Z,28.10
2018-02-14T09:57:54.585Z,27.30
2018-02-14T10:00:22.237Z,27.30
2018-02-14T10:02:49.868Z,27.20
2018-02-14T10:05:18.291Z,26.90
2018-02-14T10:07:45.937Z,26.80
2018-02-14T10:10:13.567Z,27.00
2018-02-14T10:12:42.026Z,27.10
2018-02-14T10:15:09.749Z,27.10
2018-02-14T10:17:37.383Z,27.20
2018-02-14T10:20:05.070Z,27.20
2018-02-14T10:22:32.715Z,27.10
2018-02-14T10:25:00.359Z,26.80
2018-02-14T10:27:28.762Z,26.90
2018-02-14T10:29:56.418Z,26.80
2018-02-14T10:32:24.067Z,26.80
2018-02-14T10:34:51.702Z,26.60
2018-02-14T10:37:20.146Z,26.80
2018-02-14T10:39:47.790Z,26.70
2018-02-14T10:42:15.466Z,26.60
2018-02-14T10:44:43.114Z,26.60
2018-02-14T10:47:10.763Z,26.60
2018-02-14T10:49:38.394Z,26.60
2018-02-14T10:52:06.795Z,26.20
2018-02-14T10:54:34.450Z,26.20
2018-02-14T10:57:02.114Z,26.20
2018-02-14T10:59:29.751Z,26.90
2018-02-14T11:02:03.674Z,26.60
2018-02-14T11:04:31.382Z,26.60
2018-02-14T11:07:04.750Z,26.30
2018-02-14T11:09:32.395Z,26.30
2018-02-14T11:12:00.040Z,26.30
2018-02-14T11:14:27.671Z,26.40
2018-02-14T11:16:55.343Z,26.50
2018-02-14T11:19:23.758Z,27.00
2018-02-14T11:21:51.402Z,26.90
2018-02-14T11:24:19.051Z,26.90
2018-02-14T11:26:47.447Z,26.50
2018-02-14T11:29:15.085Z,26.50
2018-02-14T11:31:43.487Z,26.70
2018-02-14T11:34:11.135Z,26.60
2018-02-14T11:36:38.782Z,26.40
2018-02-14T11:39:07.190Z,26.50
2018-02-14T11:41:34.857Z,26.50
2018-02-14T11:44:02.507Z,26.40
2018-02-14T11:46:30.165Z,26.50
2018-02-14T11:48:57.809Z,26.70
2018-02-14T11:51:26.224Z,26.60
2018-02-14T11:53:53.861Z,26.60
2018-02-14T11:56:21.541Z,26.60
2018-02-14T11:58:49.214Z,27.10
2018-02-14T12:01:16.960Z,26.60
2018-02-14T12:03:44.636Z,26.70
2018-02-14T12:06:12.267Z,26.80
2018-02-14T12:08:39.924Z,26.80
2018-02-14T12:11:07.571Z,26.90
2018-02-14T12:13:35.982Z,25.70
2018-02-14T12:16:03.659Z,25.80
2018-02-14T12:18:32.059Z,25.40
2018-02-14T12:20:59.692Z,25.40
2018-02-14T12:23:27.332Z,25.40
2018-02-14T12:25:55.009Z,25.40
2018-02-14T12:28:22.634Z,25.30
2018-02-14T12:30:51.038Z,25.10
2018-02-14T12:33:18.674Z,25.10
2018-02-14T12:35:46.307Z,25.30
2018-02-14T12:38:13.951Z,25.50
2018-02-14T12:40:41.582Z,25.70
2018-02-14T12:43:09.213Z,25.80
2018-02-14T12:45:37.664Z,26.00
2018-02-14T12:48:05.413Z,25.90
2018-02-14T12:50:33.045Z,26.20
2018-02-14T12:53:00.691Z,26.40
2018-02-14T12:55:28.333Z,26.50
2018-02-14T12:57:56.747Z,26.20
2018-02-14T13:00:24.415Z,26.20
2018-02-14T13:02:52.078Z,26.20
2018-02-14T13:05:19.738Z,26.40
2018-02-14T13:07:47.394Z,26.80
2018-02-14T13:10:15.064Z,27.00
2018-02-14T13:12:42.747Z,27.00
2018-02-14T13:15:10.387Z,27.00
2018-02-14T13:17:38.091Z,27.10
2018-02-14T13:20:06.502Z,26.90
2018-02-14T13:22:34.200Z,26.90
2018-02-14T13:25:01.870Z,27.00
2018-02-14T13:27:29.545Z,27.10
2018-02-14T13:29:57.968Z,27.20
2018-02-14T13:32:25.643Z,27.20
2018-02-14T13:34:53.294Z,27.20
2018-02-14T13:37:20.954Z,27.20
2018-02-14T13:39:48.598Z,27.10
2018-02-14T13:42:16.233Z,27.10
2018-02-14T13:44:44.630Z,27.10
2018-02-14T13:47:12.277Z,27.00
2018-02-14T13:49:40.725Z,26.60
2018-02-14T13:52:08.455Z,26.50
2018-02-14T13:54:36.092Z,26.40
2018-02-14T13:57:03.736Z,26.40
2018-02-14T13:59:32.154Z,26.40
2018-02-14T14:01:59.801Z,26.30
2018-02-14T14:04:27.435Z,26.30
2018-02-14T14:06:55.845Z,25.90
2018-02-14T14:09:23.486Z,25.90
2018-02-14T14:11:51.138Z,25.80
2018-02-14T14:14:18.786Z,25.90
2018-02-14T14:16:47.178Z,26.10
2018-02-14T14:19:14.840Z,26.10
2018-02-14T14:21:42.500Z,26.20
2018-02-14T14:24:10.157Z,26.20
2018-02-14T14:26:37.825Z,26.10
2018-02-14T14:29:05.469Z,26.00
2018-02-14T14:31:33.970Z,25.90
2018-02-14T14:34:01.632Z,25.90
2018-02-14T14:36:29.282Z,25.70
2018-02-14T14:38:56.923Z,25.70
2018-02-14T14:41:25.322Z,25.10
2018-02-14T14:43:52.962Z,25.10
2018-02-14T14:46:21.362Z,24.90
2018-02-14T14:48:49.008Z,24.90
2018-02-14T14:51:16.654Z,24.90
2018-02-14T14:53:45.071Z,24.80
2018-02-14T14:56:12.705Z,24.80
2018-02-14T14:58:41.115Z,24.70
2018-02-14T15:01:08.741Z,24.70
2018-02-14T15:03:37.132Z,24.50
2018-02-14T15:06:04.772Z,24.50
2018-02-14T15:08:33.175Z,24.70
2018-02-14T15:11:00.820Z,24.70
2018-02-14T15:13:29.217Z,24.80
2018-02-14T15:15:57.720Z,24.70
2018-02-14T15:18:25.381Z,24.70
2018-02-14T15:20:53.032Z,24.60
2018-02-14T15:23:20.699Z,24.80
2018-02-14T15:25:48.357Z,24.80
2018-02-14T15:28:15.991Z,24.70
2018-02-14T15:30:43.619Z,24.60
2018-02-14T15:33:13.902Z,24.60
2018-02-14T15:35:41.660Z,24.70
2018-02-14T15:38:09.330Z,24.80
2018-02-14T15:40:36.963Z,24.90
2018-02-14T15:43:04.607Z,24.90
2018-02-14T15:45:32.254Z,24.80
2018-02-14T15:48:00.697Z,25.00
2018-02-14T15:50:28.371Z,25.00
2018-02-14T15:52:56.024Z,25.10
2018-02-14T15:55:23.672Z,25.00
2018-02-14T15:57:51.316Z,25.10
2018-02-14T16:00:19.185Z,25.20
2018-02-14T16:02:46.815Z,25.20
2018-02-14T16:05:14.458Z,25.10
2018-02-14T16:07:42.882Z,24.90
2018-02-14T16:10:10.615Z,24.90
2018-02-14T16:12:39.078Z,24.90
2018-02-14T16:15:07.573Z,25.10
2018-02-14T16:17:35.218Z,24.80
2018-02-14T16:20:03.623Z,24.60
2018-02-14T16:22:31.257Z,24.60
2018-02-14T16:24:59.706Z,24.70
2018-02-14T16:27:27.366Z,24.70
2018-02-14T16:29:55.017Z,25.20
2018-02-14T16:32:22.657Z,24.70
2018-02-14T16:34:50.292Z,24.70
2018-02-14T16:37:17.957Z,24.60
2018-02-14T16:39:45.614Z,24.60
2018-02-14T16:42:14.067Z,24.50
2018-02-14T16:44:42.521Z,24.60
2018-02-14T16:47:10.183Z,24.50
2018-02-14T16:49:37.825Z,24.60
2018-02-14T16:52:05.495Z,24.60
2018-02-14T16:54:33.895Z,25.00
2018-02-14T16:57:01.535Z,24.50
2018-02-14T16:59:29.175Z,24.50
2018-02-14T17:01:56.834Z,24.40
2018-02-14T17:04:24.483Z,24.50
2018-02-14T17:06:52.145Z,24.50
2018-02-14T17:09:19.786Z,24.50
2018-02-14T17:11:48.225Z,24.40
2018-02-14T17:14:15.864Z,24.40
2018-02-14T17:16:43.505Z,24.40
2018-02-14T17:19:11.138Z,24.30
2018-02-14T17:21:39.549Z,24.40
2018-02-14T17:24:07.194Z,24.40
2018-02-14T17:26:34.850Z,24.40
2018-02-14T17:29:02.475Z,24.40
2018-02-14T17:31:30.119Z,24.50
2018-02-14T17:33:57.854Z,24.50
2018-02-14T17:36:25.533Z,25.20
2018-02-14T17:38:53.393Z,24.70
2018-02-14T17:41:21.067Z,24.80
2018-02-14T17:43:48.739Z,24.80
2018-02-14T17:46:16.478Z,24.80
2018-02-14T17:48:44.257Z,24.70
2018-02-14T17:51:11.938Z,24.80
2018-02-14T17:53:39.617Z,24.70
2018-02-14T17:56:08.249Z,24.70
2018-02-14T17:58:35.964Z,24.60
2018-02-14T18:01:04.486Z,24.80
2018-02-14T18:03:32.166Z,24.70
2018-02-14T18:05:59.929Z,24.80
2018-02-14T18:08:27.878Z,24.80
2018-02-14T18:10:55.667Z,24.70
2018-02-14T18:13:24.820Z,24.70
2018-02-14T18:15:52.491Z,24.70
2018-02-14T18:18:20.123Z,24.70
2018-02-14T18:20:47.783Z,24.60
2018-02-14T18:23:15.414Z,24.60
2018-02-14T18:25:43.065Z,24.70
2018-02-14T18:28:10.706Z,24.70
2018-02-14T18:30:38.390Z,24.70
2018-02-14T18:33:06.126Z,24.70
2018-02-14T18:35:35.249Z,24.60
2018-02-14T18:38:02.917Z,24.60
2018-02-14T18:40:31.377Z,24.80
2018-02-14T18:42:59.138Z,24.80
2018-02-14T18:45:26.786Z,24.90
2018-02-14T18:47:54.438Z,24.90
2018-02-14T18:50:22.079Z,24.80
2018-02-14T18:52:49.722Z,24.90
2018-02-14T18:55:18.123Z,25.00
2018-02-14T18:57:45.822Z,24.90
2018-02-14T19:00:13.580Z,25.00
2018-02-14T19:02:41.225Z,25.00
2018-02-14T19:05:08.875Z,25.00
2018-02-14T19:07:36.614Z,24.90
2018-02-14T19:10:04.407Z,24.90
2018-02-14T19:12:32.169Z,24.90
2018-02-14T19:14:59.807Z,24.90
2018-02-14T19:17:27.454Z,24.90
2018-02-14T19:19:55.091Z,24.80
2018-02-14T19:22:23.518Z,24.90
2018-02-14T19:24:51.179Z,24.90
2018-02-14T19:27:18.886Z,25.00
2018-02-14T19:29:46.531Z,25.10
2018-02-14T19:32:14.169Z,25.10
2018-02-14T19:34:41.802Z,25.20
2018-02-14T19:37:09.428Z,25.30
2018-02-14T19:39:37.078Z,25.30
2018-02-14T19:42:04.722Z,25.60
2018-02-14T19:44:32.358Z,25.30
2018-02-14T19:47:00.117Z,25.10
2018-02-14T19:49:27.754Z,25.10
2018-02-14T19:51:56.289Z,25.10
2018-02-14T19:54:23.932Z,25.10
2018-02-14T19:56:51.577Z,25.10
2018-02-14T19:59:19.226Z,25.10
2018-02-14T20:01:47.029Z,25.20
2018-02-14T20:04:14.673Z,25.30
2018-02-14T20:06:42.315Z,25.30
2018-02-14T20:09:10.012Z,25.40
2018-02-14T20:11:37.654Z,25.60
2018-02-14T20:14:05.298Z,25.70
2018-02-14T20:16:32.994Z,25.70
2018-02-14T20:19:00.646Z,25.60
2018-02-14T20:21:28.305Z,25.50
2018-02-14T20:23:56.066Z,25.50
2018-02-14T20:26:23.706Z,25.50
2018-02-14T20:28:51.339Z,25.40
2018-02-14T20:31:19.768Z,25.30
2018-02-14T20:33:47.423Z,25.30
2018-02-14T20:36:15.058Z,25.30
2018-02-14T20:38:42.685Z,25.30
2018-02-14T20:41:10.326Z,25.30
2018-02-14T20:43:38.083Z,25.30
2018-02-14T20:46:05.829Z,25.30
2018-02-14T20:48:33.459Z,25.30
2018-02-14T20:51:01.098Z,25.30
2018-02-14T20:53:29.634Z,25.20
2018-02-14T20:55:57.265Z,25.20
2018-02-14T20:58:24.911Z,25.20
2018-02-14T21:00:52.543Z,25.30
2018-02-14T21:03:20.199Z,25.30
2018-02-14T21:05:47.949Z,25.30
2018-02-14T21:08:16.538Z,25.30
2018-02-14T21:10:44.175Z,25.50
2018-02-14T21:13:11.811Z,25.20
2018-02-14T21:15:39.470Z,25.20
2018-02-14T21:18:07.112Z,25.30
2018-02-14T21:20:35.550Z,25.30
2018-02-14T21:23:04.014Z,25.30
2018-02-14T21:25:31.666Z,25.20
2018-02-14T21:27:59.366Z,25.20
2018-02-14T21:30:27.015Z,25.30
2018-02-14T21:32:54.670Z,25.30
2018-02-14T21:35:22.308Z,25.40
2018-02-14T21:37:49.939Z,25.40
2018-02-14T21:40:17.596Z,25.50
2018-02-14T21:42:46.008Z,25.60
2018-02-14T21:45:13.682Z,25.50
2018-02-14T21:47:41.333Z,25.50
2018-02-14T21:50:09.013Z,25.40
2018-02-14T21:52:37.414Z,25.40
2018-02-14T21:55:05.079Z,25.30
2018-02-14T21:57:33.518Z,25.20
2018-02-14T22:00:01.145Z,25.20
2018-02-14T22:02:28.783Z,25.10
2018-02-14T22:04:57.229Z,25.10
2018-02-14T22:07:24.877Z,25.00
2018-02-14T22:09:52.536Z,25.10
2018-02-14T22:12:20.196Z,25.00
2018-02-14T22:14:48.593Z,24.90
2018-02-14T22:17:17.006Z,24.80
2018-02-14T22:19:45.407Z,24.80
2018-02-14T22:22:13.038Z,24.80
2018-02-14T22:24:41.473Z,24.70
2018-02-14T22:27:09.901Z,24.60
2018-02-14T22:29:38.322Z,24.60
2018-02-14T22:32:06.017Z,24.60
2018-02-14T22:34:33.744Z,24.60
2018-02-14T22:37:01.422Z,24.60
2018-02-14T22:39:29.066Z,24.60
2018-02-14T22:41:56.698Z,24.40
2018-02-14T22:44:24.347Z,24.30
2018-02-14T22:46:52.062Z,24.30
2018-02-14T22:49:19.707Z,24.20
2018-02-14T22:51:47.343Z,24.30
2018-02-14T22:54:14.994Z,24.30
2018-02-14T22:56:42.646Z,24.30
2018-02-14T22:59:11.047Z,24.30
2018-02-14T23:01:38.671Z,24.30
2018-02-14T23:04:07.208Z,24.20
2018-02-14T23:06:34.895Z,24.20
2018-02-14T23:09:02.542Z,24.20
2018-02-14T23:11:30.289Z,24.20
2018-02-14T23:13:57.914Z,24.10
2018-02-14T23:16:25.546Z,24.10
2018-02-14T23:18:53.178Z,24.00
2018-02-14T23:21:20.937Z,23.90
2018-02-14T23:23:48.695Z,23.90
2018-02-14T23:26:16.321Z,23.90
2018-02-14T23:28:43.947Z,23.80
2018-02-14T23:31:11.658Z,24.30
2018-02-14T23:33:39.301Z,23.70
2018-02-14T23:36:06.931Z,23.70
2018-02-14T23:38:35.382Z,23.70
2018-02-14T23:41:03.010Z,23.70
2018-02-14T23:43:30.633Z,23.70
2018-02-14T23:45:58.266Z,23.70
2018-02-14T23:48:25.928Z,23.60
2018-02-14T23:50:53.575Z,23.60
2018-02-14T23:53:21.206Z,23.60
2018-02-14T23:55:48.870Z,23.50
2018-02-14T23:58:16.518Z,23.50
